Time;durP1;ratioP1;P1;durP2;ratioP2;P2;SDS_P1;SDS_P2;PMS_P1;PMS_P2;Temp;Humidity;BMP_temperature;BMP_pressure;BME280_temperature;BME280_humidity;BME280_pressure;Samples;Min_cycle;Max_cycle;Signal;HPM_P1;HPM_P2
2021/11/15 00:00:27;;;;;;;186.15;90.95;;;;;;;4.92;67.57;95587.53;5026067;28;20036;-79
2021/11/15 00:02:53;;;;;;;201.75;103.18;;;;;;;5.07;65.74;95578.00;5002995;28;20022;-78
2021/11/15 00:05:18;;;;;;;179.55;90.65;;;;;;;5.12;66.17;95580.84;5033390;28;20033;-79
2021/11/15 00:07:44;;;;;;;185.43;88.53;;;;;;;5.14;66.07;95591.78;5032453;28;20022;-78
2021/11/15 00:10:16;;;;;;;194.55;91.13;;;;;;;5.18;65.94;95590.44;5024743;28;20417;-79
2021/11/15 00:12:45;;;;;;;145.00;76.72;;;;;;;5.28;65.99;95585.81;5026236;28;20065;-78
2021/11/15 00:15:11;;;;;;;116.13;62.35;;;;;;;5.31;67.10;95595.75;5025754;28;20045;-79
2021/11/15 00:17:37;;;;;;;104.10;55.30;;;;;;;5.28;67.58;95585.00;5011463;28;20109;-79
2021/11/15 00:20:04;;;;;;;109.65;57.03;;;;;;;5.36;68.07;95587.47;5011109;28;20132;-79
2021/11/15 00:22:29;;;;;;;116.22;60.38;;;;;;;5.39;67.84;95587.94;5010806;28;20077;-79
2021/11/15 00:24:54;;;;;;;105.55;60.17;;;;;;;5.40;68.03;95581.81;5013299;28;20124;-79
2021/11/15 00:27:20;;;;;;;120.63;66.10;;;;;;;5.49;67.01;95582.47;5094417;22;20037;-79
2021/11/15 00:29:45;;;;;;;122.45;66.75;;;;;;;5.52;66.41;95579.53;5032759;28;20041;-79
2021/11/15 00:32:11;;;;;;;125.47;64.57;;;;;;;5.59;65.85;95583.00;5032928;28;20041;-79
2021/11/15 00:34:36;;;;;;;111.15;58.90;;;;;;;5.61;65.65;95587.97;4997188;28;20034;-79
2021/11/15 00:37:02;;;;;;;108.80;53.00;;;;;;;5.70;66.37;95599.81;4996983;28;20030;-79
2021/11/15 00:39:27;;;;;;;97.57;53.40;;;;;;;5.72;66.87;95592.69;5012540;28;20117;-79
2021/11/15 00:41:53;;;;;;;87.45;51.53;;;;;;;5.74;68.14;95585.56;5014463;28;20030;-79
2021/11/15 00:44:18;;;;;;;87.05;49.67;;;;;;;5.85;68.08;95600.53;4997139;28;20033;-79
2021/11/15 00:46:44;;;;;;;109.93;56.70;;;;;;;5.92;67.50;95592.91;4980674;28;20104;-79
2021/11/15 00:49:09;;;;;;;100.00;56.33;;;;;;;5.99;67.18;95593.75;4996637;28;20089;-79
2021/11/15 00:51:34;;;;;;;111.93;59.33;;;;;;;5.98;67.29;95594.75;5013048;28;20565;-79
2021/11/15 00:54:00;;;;;;;107.80;56.90;;;;;;;6.06;66.67;95594.63;4995967;28;20046;-79
2021/11/15 00:56:25;;;;;;;109.57;57.72;;;;;;;6.11;66.13;95586.34;5012433;28;20034;-79
2021/11/15 00:58:51;;;;;;;107.70;58.55;;;;;;;6.08;66.05;95586.72;4979890;28;20038;-79
2021/11/15 01:01:17;;;;;;;99.63;54.30;;;;;;;6.08;66.25;95584.13;4980533;28;20042;-78
2021/11/15 01:03:42;;;;;;;104.78;55.47;;;;;;;6.09;66.07;95585.72;4980239;28;20428;-78
2021/11/15 01:06:08;;;;;;;96.95;53.90;;;;;;;6.10;65.72;95582.94;5012497;28;20038;-78
2021/11/15 01:08:33;;;;;;;94.85;52.15;;;;;;;6.09;67.48;95588.31;4996256;28;20046;-77
2021/11/15 01:10:59;;;;;;;95.13;49.65;;;;;;;6.14;68.77;95583.38;4996012;28;20057;-79
2021/11/15 01:13:26;;;;;;;104.00;53.28;;;;;;;6.05;67.30;95581.91;4996296;28;20050;-79
2021/11/15 01:15:51;;;;;;;106.78;54.95;;;;;;;6.03;67.10;95574.34;4996692;28;20084;-79
2021/11/15 01:18:17;;;;;;;116.53;58.15;;;;;;;6.00;66.78;95580.66;4978860;28;20038;-78
2021/11/15 01:20:43;;;;;;;104.43;56.78;;;;;;;5.92;67.20;95578.22;4979559;28;20046;-79
2021/11/15 01:23:08;;;;;;;108.05;58.13;;;;;;;5.87;67.26;95580.53;4979741;28;20104;-79
2021/11/15 01:25:35;;;;;;;136.52;67.50;;;;;;;5.90;67.27;95580.19;4996187;28;20030;-79
2021/11/15 01:28:00;;;;;;;128.77;66.22;;;;;;;5.88;67.36;95576.97;4995966;28;20120;-79
2021/11/15 01:30:26;;;;;;;130.30;65.32;;;;;;;5.91;67.92;95578.41;5013266;28;20045;-79
2021/11/15 01:32:52;;;;;;;128.48;66.63;;;;;;;5.95;67.56;95579.63;5012465;28;20428;-79
2021/11/15 01:35:18;;;;;;;125.93;66.60;;;;;;;5.98;67.73;95572.31;4995236;28;20040;-79
2021/11/15 01:37:43;;;;;;;117.90;60.72;;;;;;;6.04;67.98;95570.00;5021700;28;20018;-79
2021/11/15 01:40:11;;;;;;;119.75;61.53;;;;;;;6.09;68.11;95577.97;5011378;28;20042;-78
2021/11/15 01:42:36;;;;;;;113.82;61.28;;;;;;;6.10;68.60;95579.56;5015577;28;20038;-78
2021/11/15 01:45:02;;;;;;;125.88;60.83;;;;;;;6.13;68.50;95580.00;4979822;28;20038;-79
2021/11/15 01:47:28;;;;;;;110.80;60.28;;;;;;;6.11;69.64;95578.59;5005486;22;20026;-78
2021/11/15 01:49:53;;;;;;;124.35;59.75;;;;;;;6.13;69.42;95579.19;5050252;28;20044;-79
2021/11/15 01:52:19;;;;;;;123.53;58.90;;;;;;;6.18;69.16;95576.84;5035087;28;20029;-78
2021/11/15 01:54:44;;;;;;;125.93;59.63;;;;;;;6.23;69.23;95577.13;5035541;28;20037;-78
2021/11/15 01:57:12;;;;;;;134.85;60.05;;;;;;;6.29;69.08;95568.59;5018858;28;20044;-78
2021/11/15 01:59:37;;;;;;;122.55;56.13;;;;;;;6.27;68.69;95570.59;5019311;28;20044;-79
2021/11/15 02:02:09;;;;;;;121.63;57.92;;;;;;;6.20;70.52;95569.75;5053771;28;20033;-79
2021/11/15 02:04:34;;;;;;;123.97;57.77;;;;;;;6.28;70.19;95572.19;5054126;28;20033;-79
2021/11/15 02:07:00;;;;;;;121.32;55.33;;;;;;;6.27;69.33;95573.16;5041724;28;20055;-78
2021/11/15 02:09:27;;;;;;;123.30;56.03;;;;;;;6.32;69.76;95579.34;5043506;28;20062;-78
2021/11/15 02:11:53;;;;;;;113.65;53.17;;;;;;;6.39;69.15;95571.69;5059417;28;20009;-79
2021/11/15 02:14:18;;;;;;;119.85;55.53;;;;;;;6.42;69.11;95568.72;5059718;28;20027;-78
2021/11/15 02:16:44;;;;;;;117.22;54.97;;;;;;;6.40;69.07;95569.91;5027079;28;20089;-78
2021/11/15 02:19:09;;;;;;;114.55;53.90;;;;;;;6.42;69.09;95567.91;5058971;28;20036;-78
2021/11/15 02:21:35;;;;;;;114.57;54.63;;;;;;;6.41;69.28;95566.31;5058780;28;20037;-78
2021/11/15 02:24:00;;;;;;;132.13;58.10;;;;;;;6.44;69.11;95569.31;5041592;28;20104;-78
2021/11/15 02:26:25;;;;;;;133.52;57.83;;;;;;;6.41;69.34;95567.13;5057624;28;20033;-78
2021/11/15 02:28:57;;;;;;;128.23;62.33;;;;;;;6.41;68.82;95571.50;5057185;28;20492;-79
2021/11/15 02:31:27;;;;;;;113.95;54.05;;;;;;;6.48;68.79;95567.16;5034872;28;20041;-79
2021/11/15 02:33:53;;;;;;;101.10;52.13;;;;;;;6.50;68.27;95571.16;5034492;28;20037;-79
2021/11/15 02:36:20;;;;;;;105.03;53.88;;;;;;;6.48;68.23;95565.38;5051585;28;20523;-79
2021/11/15 02:38:48;;;;;;;105.55;52.20;;;;;;;6.42;68.45;95562.75;5051417;28;20029;-78
2021/11/15 02:41:13;;;;;;;106.57;50.28;;;;;;;6.44;68.28;95565.94;5018092;28;20128;-78
2021/11/15 02:43:39;;;;;;;106.05;52.60;;;;;;;6.39;68.85;95563.13;5035029;28;20029;-79
2021/11/15 02:46:05;;;;;;;82.78;44.15;;;;;;;6.43;68.15;95559.19;5017789;28;20037;-79
2021/11/15 02:48:30;;;;;;;95.38;48.78;;;;;;;6.42;67.84;95568.72;5049806;28;20123;-79
2021/11/15 02:50:56;;;;;;;89.32;44.97;;;;;;;6.45;66.93;95570.13;5051870;28;20035;-78
2021/11/15 02:53:21;;;;;;;90.20;44.33;;;;;;;6.52;66.86;95578.75;5052682;28;20460;-79
2021/11/15 02:55:47;;;;;;;96.47;47.50;;;;;;;6.47;66.21;95576.69;5034612;28;20025;-79
2021/11/15 02:58:12;;;;;;;83.22;42.20;;;;;;;6.48;67.10;95575.72;5052403;28;20065;-79
2021/11/15 03:00:41;;;;;;;82.93;44.42;;;;;;;6.48;67.06;95578.28;5034914;28;20036;-79
2021/11/15 03:03:07;;;;;;;95.45;46.22;;;;;;;6.48;67.49;95573.13;5051800;28;20033;-79
2021/11/15 03:05:34;;;;;;;82.80;44.33;;;;;;;6.45;67.84;95583.84;5051100;28;20187;-79
2021/11/15 03:08:00;;;;;;;90.97;44.70;;;;;;;6.51;67.34;95588.28;5050930;28;20037;-79
2021/11/15 03:10:26;;;;;;;85.43;44.67;;;;;;;6.57;67.85;95579.78;5051749;28;20033;-79
2021/11/15 03:12:52;;;;;;;90.20;46.85;;;;;;;6.60;67.29;95578.59;5052143;28;20389;-79
2021/11/15 03:15:29;;;;;;;91.68;44.97;;;;;;;6.62;67.63;95585.16;5051903;28;20148;-79
2021/11/15 03:17:59;;;;;;;86.78;43.80;;;;;;;6.59;68.04;95585.53;5025302;28;20052;-79
2021/11/15 03:20:26;;;;;;;86.88;45.38;;;;;;;6.64;67.61;95587.56;5033487;28;20037;-79
2021/11/15 03:22:51;;;;;;;85.75;45.80;;;;;;;6.68;67.75;95583.63;5024682;28;20470;-79
2021/11/15 03:25:17;;;;;;;88.40;44.70;;;;;;;6.73;67.40;95577.88;5033919;28;20025;-79
2021/11/15 03:27:42;;;;;;;92.85;46.03;;;;;;;6.72;67.52;95579.69;5051696;28;20037;-79
2021/11/15 03:30:08;;;;;;;85.72;48.00;;;;;;;6.76;68.08;95580.88;5050491;28;20067;-79
2021/11/15 03:32:34;;;;;;;101.50;51.00;;;;;;;6.77;67.01;95579.09;5033724;28;20093;-79
2021/11/15 03:34:59;;;;;;;94.65;46.10;;;;;;;6.84;67.23;95577.38;5016325;28;20033;-78
2021/11/15 03:37:25;;;;;;;82.13;46.42;;;;;;;6.85;67.38;95584.13;5032063;28;20067;-79
2021/11/15 03:39:50;;;;;;;101.60;51.83;;;;;;;6.89;67.18;95580.97;5031775;28;20098;-79
2021/11/15 03:42:45;;;;;;;95.18;50.67;;;;;;;6.78;67.18;95575.53;5048409;28;20082;-79
2021/11/15 03:45:10;;;;;;;86.93;47.05;;;;;;;6.86;67.59;95586.53;5050075;28;20416;-79
2021/11/15 03:47:36;;;;;;;99.80;48.95;;;;;;;6.86;67.11;95585.75;5032966;28;20039;-80
2021/11/15 03:50:03;;;;;;;96.97;47.80;;;;;;;6.92;67.69;95584.97;5033263;28;20029;-79
2021/11/15 03:52:28;;;;;;;91.82;46.47;;;;;;;6.81;67.61;95582.91;5033853;28;20033;-79
2021/11/15 03:54:54;;;;;;;88.28;47.00;;;;;;;6.85;67.62;95584.13;5043780;28;20067;-79
2021/11/15 03:57:19;;;;;;;89.53;48.47;;;;;;;6.98;67.50;95589.38;5045864;28;20021;-79
2021/11/15 03:59:45;;;;;;;97.40;49.00;;;;;;;6.89;67.49;95586.16;5047781;28;20044;-79
2021/11/15 04:02:11;;;;;;;100.78;50.58;;;;;;;6.88;67.20;95589.72;5072265;28;20028;-79
2021/11/15 04:04:51;;;;;;;101.15;48.65;;;;;;;6.90;67.69;95592.13;5040994;28;20675;-79
2021/11/15 04:07:28;;;;;;;95.45;48.38;;;;;;;6.98;67.54;95584.19;5053524;28;20025;-79
2021/11/15 04:10:02;;;;;;;86.85;49.17;;;;;;;7.06;66.71;95578.88;5022813;28;20041;-79
2021/11/15 04:12:28;;;;;;;96.65;51.65;;;;;;;7.09;67.10;95577.69;5020395;28;20400;-79
2021/11/15 04:14:54;;;;;;;99.40;51.30;;;;;;;7.13;66.51;95577.13;5053444;28;20041;-79
2021/11/15 04:17:19;;;;;;;93.93;50.42;;;;;;;7.14;66.88;95578.72;5037338;28;20542;-79
2021/11/15 04:19:46;;;;;;;91.38;49.10;;;;;;;7.14;66.59;95583.09;5037076;28;20025;-79
2021/11/15 04:22:11;;;;;;;92.45;48.60;;;;;;;7.15;66.51;95582.91;5052916;28;20037;-80
2021/11/15 04:24:37;;;;;;;90.28;48.35;;;;;;;7.19;66.53;95581.56;5020538;28;20052;-79
2021/11/15 04:27:03;;;;;;;94.80;48.40;;;;;;;7.17;66.01;95578.34;5029335;28;20041;-79
2021/11/15 04:29:29;;;;;;;87.07;48.70;;;;;;;7.22;66.07;95575.97;5036616;28;20526;-80
2021/11/15 04:31:54;;;;;;;82.20;47.42;;;;;;;7.23;65.99;95584.53;5053815;28;20044;-79
2021/11/15 04:34:20;;;;;;;87.18;47.40;;;;;;;7.27;66.41;95587.53;5019978;28;20056;-79
2021/11/15 04:36:45;;;;;;;97.20;48.53;;;;;;;7.19;66.09;95585.94;5035342;28;20048;-79
2021/11/15 04:39:11;;;;;;;101.82;48.15;;;;;;;7.25;66.36;95585.16;5002273;28;20090;-80
2021/11/15 04:41:40;;;;;;;87.65;48.42;;;;;;;7.28;66.43;95581.38;5019097;28;20033;-80
2021/11/15 04:44:05;;;;;;;95.23;48.27;;;;;;;7.28;66.24;95581.38;5922813;22;20008;-78
2021/11/15 04:46:37;;;;;;;88.80;48.67;;;;;;;7.23;66.06;95587.94;5029362;28;20034;-79
2021/11/15 04:49:11;;;;;;;90.57;46.78;;;;;;;7.21;66.08;95584.75;5034070;28;20033;-79
2021/11/15 04:51:37;;;;;;;100.28;48.80;;;;;;;7.11;66.34;95586.88;5033148;28;20033;-79
2021/11/15 04:54:02;;;;;;;95.10;47.42;;;;;;;7.14;66.44;95596.03;5033498;28;20041;-79
2021/11/15 04:56:33;;;;;;;98.60;50.60;;;;;;;7.13;66.64;95592.63;5031910;28;20040;-79
2021/11/15 04:58:59;;;;;;;95.90;48.33;;;;;;;7.16;65.65;95589.69;5016075;28;20037;-79
2021/11/15 05:01:24;;;;;;;90.65;47.00;;;;;;;7.21;66.29;95595.09;5016523;28;20044;-80
2021/11/15 05:03:50;;;;;;;81.53;46.85;;;;;;;7.21;66.06;95595.09;5004167;23;20046;-80
2021/11/15 05:06:16;;;;;;;86.25;47.15;;;;;;;7.14;66.33;95599.41;4994914;28;20046;-80
2021/11/15 05:08:42;;;;;;;79.85;45.58;;;;;;;7.03;66.23;95599.97;4985416;28;20038;-80
2021/11/15 05:11:07;;;;;;;82.53;45.63;;;;;;;7.01;66.20;95608.91;4960926;28;20042;-80
2021/11/15 05:13:32;;;;;;;86.65;47.53;;;;;;;7.00;66.44;95613.28;4993732;28;20041;-80
2021/11/15 05:15:58;;;;;;;83.50;47.30;;;;;;;7.00;66.49;95615.84;4995289;28;20045;-79
2021/11/15 05:18:23;;;;;;;90.10;49.35;;;;;;;6.96;66.32;95624.97;4961542;28;20031;-79
2021/11/15 05:20:49;;;;;;;93.78;48.50;;;;;;;6.88;66.46;95618.16;4944853;28;20116;-79
2021/11/15 05:23:15;;;;;;;101.43;54.88;;;;;;;6.89;66.46;95629.31;4945605;28;20076;-80
2021/11/15 05:25:42;;;;;;;111.47;58.72;;;;;;;6.81;66.56;95629.44;4976030;28;20031;-79
2021/11/15 05:28:16;;;;;;;94.57;51.75;;;;;;;6.86;66.41;95622.72;4977771;28;20457;-80
2021/11/15 05:30:42;;;;;;;89.68;47.85;;;;;;;6.77;66.96;95626.44;4993851;28;20054;-80
2021/11/15 05:33:07;;;;;;;77.80;45.28;;;;;;;6.77;66.96;95623.03;4976186;28;20037;-81
2021/11/15 05:35:33;;;;;;;81.30;48.08;;;;;;;6.75;66.62;95627.59;4964229;28;20038;-79
2021/11/15 05:37:58;;;;;;;82.32;47.28;;;;;;;6.63;67.48;95633.28;4996982;28;20034;-79
2021/11/15 05:40:25;;;;;;;87.18;45.75;;;;;;;6.50;66.94;95633.16;4980058;28;20050;-79
2021/11/15 05:42:52;;;;;;;90.43;48.65;;;;;;;6.39;68.05;95641.44;4966360;28;20034;-79
2021/11/15 05:45:17;;;;;;;93.03;48.70;;;;;;;6.30;67.91;95632.19;4998869;28;20045;-80
2021/11/15 05:47:43;;;;;;;88.28;48.75;;;;;;;6.18;68.32;95639.66;4979361;28;20034;-80
2021/11/15 05:50:09;;;;;;;86.90;44.83;;;;;;;6.09;68.76;95647.69;4942116;28;20061;-80
2021/11/15 05:52:39;;;;;;;81.50;45.53;;;;;;;5.95;70.02;95649.31;4979037;28;20132;-80
2021/11/15 05:55:05;;;;;;;87.60;47.55;;;;;;;5.82;70.05;95654.31;4965191;28;20041;-79
2021/11/15 05:57:31;;;;;;;81.00;46.20;;;;;;;5.80;70.43;95662.22;4981891;28;20066;-82
2021/11/15 05:59:57;;;;;;;81.15;46.60;;;;;;;5.81;70.14;95656.09;4978669;28;20113;-81
2021/11/15 06:02:22;;;;;;;76.05;42.80;;;;;;;5.80;70.64;95662.22;4996174;28;20038;-81
2021/11/15 06:04:48;;;;;;;86.60;43.38;;;;;;;5.86;70.56;95664.09;4995806;28;20098;-81
2021/11/15 06:07:13;;;;;;;87.95;46.95;;;;;;;5.91;70.40;95668.75;4982903;28;20049;-80
2021/11/15 06:09:39;;;;;;;89.22;44.80;;;;;;;5.99;70.62;95666.03;4956648;28;20026;-81
2021/11/15 06:12:05;;;;;;;76.53;42.70;;;;;;;6.04;70.49;95663.72;4971935;28;20034;-81
2021/11/15 06:14:30;;;;;;;70.60;39.38;;;;;;;6.17;70.22;95663.06;4967216;28;20034;-82
2021/11/15 06:16:56;;;;;;;72.65;41.53;;;;;;;6.44;69.10;95662.34;4978918;28;20042;-81
2021/11/15 06:19:21;;;;;;;83.20;39.63;;;;;;;6.60;68.58;95654.31;4994628;28;20042;-83
2021/11/15 06:21:47;;;;;;;82.57;40.15;;;;;;;6.82;67.51;95667.22;4960736;28;20045;-82
2021/11/15 06:24:12;;;;;;;96.00;41.17;;;;;;;7.00;67.09;95664.19;4995480;28;20034;-82
2021/11/15 06:26:37;;;;;;;72.18;43.08;;;;;;;7.14;66.41;95664.06;4995494;28;20046;-82
2021/11/15 06:29:03;;;;;;;73.28;39.20;;;;;;;7.29;65.83;95668.34;4968471;28;20480;-82
2021/11/15 06:31:29;;;;;;;77.97;40.88;;;;;;;7.33;65.09;95677.34;4961114;28;20043;-82
2021/11/15 06:33:54;;;;;;;66.72;38.38;;;;;;;7.46;64.59;95682.56;4977360;28;20038;-83
2021/11/15 06:36:23;;;;;;;75.05;41.22;;;;;;;7.50;64.83;95679.44;4995479;28;20038;-83
2021/11/15 06:38:50;;;;;;;87.57;39.63;;;;;;;7.61;64.53;95683.25;4995620;28;20112;-80
2021/11/15 06:41:15;;;;;;;71.90;36.97;;;;;;;7.65;63.86;95679.31;4980679;28;20038;-80
2021/11/15 06:43:41;;;;;;;66.63;36.35;;;;;;;7.78;63.58;95684.53;4980184;28;20150;-85
2021/11/15 06:46:07;;;;;;;73.63;38.58;;;;;;;7.80;63.01;95687.72;4964779;28;20038;-80
2021/11/15 06:48:40;;;;;;;63.83;35.17;;;;;;;7.99;62.95;95685.41;4995404;28;20035;-79
2021/11/15 06:51:06;;;;;;;78.38;37.28;;;;;;;8.10;62.73;95687.44;4965520;28;20073;-77
2021/11/15 06:53:32;;;;;;;59.78;35.75;;;;;;;8.23;61.78;95682.28;4995137;28;20034;-79
2021/11/15 06:55:59;;;;;;;62.17;35.70;;;;;;;8.14;61.17;95683.47;4973948;28;20406;-80
2021/11/15 06:58:26;;;;;;;63.80;37.50;;;;;;;8.00;62.36;95681.84;4975061;28;20958;-81
2021/11/15 07:00:52;;;;;;;66.82;36.78;;;;;;;8.11;61.47;95684.66;4976909;28;20030;-81
2021/11/15 07:03:18;;;;;;;69.00;36.97;;;;;;;7.97;62.18;95682.19;4968425;28;20050;-80
2021/11/15 07:05:43;;;;;;;69.88;36.42;;;;;;;7.92;61.99;95687.16;4996651;28;20026;-80
2021/11/15 07:08:09;;;;;;;66.95;38.78;;;;;;;7.88;62.61;95683.38;4975409;28;20049;-80
2021/11/15 07:10:36;;;;;;;63.47;38.65;;;;;;;8.12;61.65;95686.25;4969757;28;20034;-80
2021/11/15 07:13:02;;;;;;;70.22;37.10;;;;;;;8.49;60.71;95686.78;4976988;28;20049;-79
2021/11/15 07:15:28;;;;;;;73.38;38.78;;;;;;;8.80;59.74;95682.81;4961206;28;20042;-80
2021/11/15 07:17:53;;;;;;;66.13;38.50;;;;;;;9.06;59.33;95682.00;4977378;28;20464;-78
2021/11/15 07:20:19;;;;;;;73.65;38.08;;;;;;;9.26;58.73;95682.78;4961887;28;20031;-79
2021/11/15 07:22:47;;;;;;;64.47;37.67;;;;;;;9.38;58.31;95680.38;4992059;28;20034;-79
2021/11/15 07:25:13;;;;;;;68.55;39.15;;;;;;;9.54;58.88;95680.75;4960509;28;20038;-78
2021/11/15 07:27:39;;;;;;;76.80;39.15;;;;;;;9.77;57.49;95684.69;4991795;28;20034;-80
2021/11/15 07:30:06;;;;;;;77.25;41.72;;;;;;;9.91;56.37;95678.41;4960249;28;20038;-78
2021/11/15 07:32:31;;;;;;;90.45;45.03;;;;;;;9.96;56.83;95672.63;4981563;28;20073;-79
2021/11/15 07:34:57;;;;;;;72.63;41.72;;;;;;;9.98;55.74;95676.59;4962981;28;20034;-79
2021/11/15 07:37:22;;;;;;;77.95;45.55;;;;;;;10.07;55.93;95675.34;5000362;28;20092;-78
2021/11/15 07:39:48;;;;;;;84.20;45.47;;;;;;;10.08;56.63;95676.94;4963931;28;20050;-78
2021/11/15 07:42:15;;;;;;;100.53;48.40;;;;;;;9.95;56.43;95682.22;4962166;28;20092;-81
2021/11/15 07:44:40;;;;;;;73.60;44.35;;;;;;;10.09;56.28;95678.56;4964386;28;20034;-79
2021/11/15 07:47:06;;;;;;;80.70;44.03;;;;;;;10.07;56.13;95682.34;4965098;28;20041;-78
2021/11/15 07:49:32;;;;;;;100.03;48.10;;;;;;;9.83;56.80;95673.47;4979319;28;20057;-79
2021/11/15 07:51:57;;;;;;;85.30;48.33;;;;;;;9.70;57.43;95673.50;4957971;28;20165;-80
2021/11/15 07:54:23;;;;;;;87.32;48.92;;;;;;;9.87;57.39;95675.44;4980068;28;20034;-83
2021/11/15 07:56:49;;;;;;;95.40;50.17;;;;;;;9.74;57.43;95682.47;4964837;28;20569;-79
2021/11/15 07:59:15;;;;;;;85.70;49.63;;;;;;;9.73;58.06;95668.69;4979396;28;20470;-80
2021/11/15 08:01:40;;;;;;;85.95;48.28;;;;;;;9.78;57.96;95675.91;4981746;28;20045;-82
2021/11/15 08:04:06;;;;;;;88.80;50.22;;;;;;;9.57;58.18;95669.16;4964992;28;20030;-77
2021/11/15 08:06:31;;;;;;;95.25;49.90;;;;;;;9.49;58.21;95666.78;5001101;28;20042;-79
2021/11/15 08:08:57;;;;;;;83.35;48.95;;;;;;;9.31;59.08;95681.19;4990511;28;20043;-79
2021/11/15 08:11:24;;;;;;;83.93;50.05;;;;;;;9.24;59.41;95675.19;4988867;28;20023;-79
2021/11/15 08:13:49;;;;;;;82.97;46.95;;;;;;;9.16;60.09;95679.81;4961226;28;20046;-77
2021/11/15 08:16:15;;;;;;;75.93;48.38;;;;;;;9.02;60.17;95679.81;4977356;28;20037;-78
2021/11/15 08:18:41;;;;;;;88.30;48.22;;;;;;;9.16;60.42;95679.81;4960855;28;20030;-78
2021/11/15 08:21:12;;;;;;;86.43;50.55;;;;;;;9.09;59.84;95666.03;4961276;28;20062;-77
2021/11/15 08:23:37;;;;;;;90.88;50.05;;;;;;;9.00;61.23;95678.44;4961788;28;20030;-77
2021/11/15 08:26:29;;;;;;;88.38;48.47;;;;;;;9.20;60.85;95668.03;4961294;28;20037;-79
2021/11/15 08:29:08;;;;;;;87.35;46.72;;;;;;;9.33;60.44;95671.41;4977413;28;20035;-79
2021/11/15 08:31:35;;;;;;;79.05;47.70;;;;;;;9.47;60.04;95669.59;4972262;28;20055;-79
2021/11/15 08:34:00;;;;;;;85.88;45.08;;;;;;;9.55;59.37;95676.34;4969382;28;20090;-80
2021/11/15 08:36:26;;;;;;;91.53;47.40;;;;;;;9.57;60.01;95672.53;4969272;28;20058;-78
2021/11/15 08:38:52;;;;;;;90.03;45.92;;;;;;;9.75;59.51;95673.69;5000303;28;20030;-83
2021/11/15 08:41:30;;;;;;;83.00;44.90;;;;;;;9.75;59.59;95673.69;4959427;28;20045;-84
2021/11/15 08:43:56;;;;;;;87.32;46.10;;;;;;;9.80;59.21;95673.88;4957750;28;20054;-77
2021/11/15 08:46:26;;;;;;;78.45;42.53;;;;;;;9.73;59.50;95673.09;4976788;28;20061;-77
2021/11/15 08:48:52;;;;;;;80.90;42.22;;;;;;;9.84;59.85;95669.88;4977259;28;20097;-78
2021/11/15 08:51:17;;;;;;;79.60;42.45;;;;;;;10.14;59.30;95675.34;4961789;28;20414;-78
2021/11/15 08:53:43;;;;;;;79.03;46.90;;;;;;;10.07;59.59;95672.75;4953657;28;20453;-78
2021/11/15 08:56:09;;;;;;;87.32;45.03;;;;;;;10.20;59.11;95674.50;4977187;28;20038;-79
2021/11/15 08:58:36;;;;;;;72.18;43.78;;;;;;;10.31;58.82;95667.88;4961201;28;20038;-78
2021/11/15 09:01:01;;;;;;;77.03;44.13;;;;;;;10.42;58.51;95667.22;4961041;28;20122;-78
2021/11/15 09:03:27;;;;;;;56.33;36.30;;;;;;;10.34;59.07;95670.06;4960715;28;20022;-79
2021/11/15 09:05:53;;;;;;;61.17;37.25;;;;;;;10.33;59.46;95663.28;4976597;28;20417;-77
2021/11/15 09:08:18;;;;;;;60.40;34.83;;;;;;;10.56;58.57;95673.91;4960974;28;20617;-80
2021/11/15 09:10:44;;;;;;;46.15;29.80;;;;;;;10.50;58.01;95672.16;4994061;28;20038;-76
2021/11/15 09:13:13;;;;;;;52.10;31.55;;;;;;;10.42;58.30;95672.44;4942553;28;20034;-79
2021/11/15 09:15:39;;;;;;;50.88;31.00;;;;;;;10.48;57.89;95655.97;4976197;28;20743;-81
2021/11/15 09:18:04;;;;;;;41.85;27.63;;;;;;;10.71;57.12;95658.81;4942679;28;20057;-79
2021/11/15 09:20:30;;;;;;;49.72;29.73;;;;;;;10.89;57.18;95662.47;4981060;28;20058;-78
2021/11/15 09:22:57;;;;;;;46.83;27.98;;;;;;;10.80;57.52;95661.97;4993867;28;20096;-79
2021/11/15 09:25:23;;;;;;;52.35;30.10;;;;;;;10.96;57.08;95665.84;4959772;28;20050;-77
2021/11/15 09:27:49;;;;;;;41.58;26.30;;;;;;;10.89;56.97;95663.28;4945815;28;20121;-78
2021/11/15 09:30:14;;;;;;;43.60;27.60;;;;;;;10.88;57.32;95660.88;4961431;28;20058;-79
2021/11/15 09:32:40;;;;;;;38.30;24.77;;;;;;;10.85;57.16;95662.09;4979285;28;20039;-81
2021/11/15 09:35:07;;;;;;;37.70;25.45;;;;;;;10.83;56.78;95667.53;4953707;28;20087;-79
2021/11/15 09:37:32;;;;;;;44.58;25.45;;;;;;;11.02;56.82;95663.16;4945818;28;20105;-78
2021/11/15 09:39:59;;;;;;;40.20;25.98;;;;;;;11.16;56.34;95653.44;4975697;28;20037;-79
2021/11/15 09:42:24;;;;;;;38.72;26.05;;;;;;;11.45;55.27;95654.56;4944270;28;20129;-79
2021/11/15 09:44:50;;;;;;;42.38;24.77;;;;;;;11.52;54.67;95651.88;4964172;28;20031;-79
2021/11/15 09:47:15;;;;;;;30.85;22.02;;;;;;;11.38;54.81;95654.63;4996504;28;20038;-81
2021/11/15 09:49:41;;;;;;;35.75;23.90;;;;;;;11.52;54.63;95662.31;4976168;28;20164;-79
2021/11/15 09:52:08;;;;;;;32.20;23.48;;;;;;;11.51;54.87;95660.72;4968096;28;20520;-82
2021/11/15 09:54:34;;;;;;;35.85;24.75;;;;;;;11.86;54.18;95664.34;4979623;28;20045;-83
2021/11/15 09:56:59;;;;;;;42.05;26.63;;;;;;;12.09;53.65;95663.69;4963881;28;20026;-71
2021/11/15 09:59:27;;;;;;;35.55;25.05;;;;;;;12.15;52.55;95662.81;4990638;28;20034;-71
2021/11/15 10:01:53;;;;;;;34.90;22.90;;;;;;;12.03;52.31;95664.56;4990193;28;20049;-70
2021/11/15 10:04:19;;;;;;;30.38;20.02;;;;;;;11.69;51.98;95652.91;4991266;28;20031;-77
2021/11/15 10:06:45;;;;;;;32.20;19.75;;;;;;;11.50;52.12;95651.31;4973650;28;20041;-77
2021/11/15 10:09:10;;;;;;;25.42;19.42;;;;;;;11.70;51.66;95657.09;4957524;28;20056;-77
2021/11/15 10:11:48;;;;;;;25.35;17.58;;;;;;;11.57;50.25;95671.06;4973216;28;20034;-77
2021/11/15 10:14:14;;;;;;;32.35;17.00;;;;;;;11.46;51.05;95673.59;4941464;28;20034;-77
2021/11/15 10:16:40;;;;;;;21.73;16.42;;;;;;;11.35;51.26;95673.28;4957128;28;20089;-77
2021/11/15 10:19:07;;;;;;;21.58;15.75;;;;;;;11.20;51.17;95685.03;4957111;28;20033;-77
2021/11/15 10:21:37;;;;;;;24.35;15.55;;;;;;;11.20;51.63;95659.81;4972264;28;20566;-77
2021/11/15 10:24:14;;;;;;;30.98;16.00;;;;;;;11.25;51.03;95657.38;4989783;28;20035;-77
2021/11/15 10:26:40;;;;;;;21.95;16.50;;;;;;;11.19;51.19;95657.41;4957127;28;20080;-77
2021/11/15 10:29:07;;;;;;;19.48;14.70;;;;;;;11.05;50.75;95680.16;4989286;28;20117;-77
2021/11/15 10:31:39;;;;;;;19.52;14.90;;;;;;;10.85;51.41;95669.13;4971823;28;20504;-77
2021/11/15 10:34:06;;;;;;;20.40;14.90;;;;;;;10.75;51.71;95700.81;4988099;28;20065;-77
2021/11/15 10:36:54;;;;;;;19.08;14.93;;;;;;;10.59;52.15;95667.53;4973411;28;20037;-76
2021/11/15 10:39:25;;;;;;;19.48;14.45;;;;;;;10.31;53.47;95670.47;4990427;28;20034;-77
2021/11/15 10:42:08;;;;;;;28.55;15.43;;;;;;;10.40;52.94;95680.41;4989761;28;20062;-76
2021/11/15 10:44:35;;;;;;;26.15;14.48;;;;;;;10.34;53.01;95651.88;4957999;28;20454;-77
2021/11/15 10:47:00;;;;;;;22.75;15.70;;;;;;;10.38;52.69;95666.03;4956233;28;20034;-77
2021/11/15 10:49:25;;;;;;;22.17;15.13;;;;;;;10.55;52.60;95667.13;4972817;28;20042;-77
2021/11/15 10:51:55;;;;;;;20.45;15.57;;;;;;;10.48;52.15;95654.16;4972654;28;20513;-77
2021/11/15 10:54:56;;;;;;;18.48;14.88;;;;;;;10.56;51.93;95650.50;4956926;28;20052;-77
2021/11/15 10:57:34;;;;;;;20.45;15.23;;;;;;;10.58;52.37;95640.72;4973475;28;20030;-77
2021/11/15 11:00:11;;;;;;;17.20;14.70;;;;;;;10.60;51.82;95654.31;4957467;28;20096;-77
2021/11/15 11:02:48;;;;;;;21.55;15.07;;;;;;;10.63;52.26;95664.28;4988068;28;20034;-77
2021/11/15 11:05:25;;;;;;;17.05;14.55;;;;;;;10.52;52.16;95657.16;4971531;28;20041;-76
2021/11/15 11:08:02;;;;;;;23.58;15.68;;;;;;;10.64;52.45;95646.88;4972663;28;20034;-77
2021/11/15 11:10:28;;;;;;;22.08;14.95;;;;;;;10.65;52.34;95645.84;4971982;28;20054;-77
2021/11/15 11:13:01;;;;;;;26.67;15.48;;;;;;;10.83;51.55;95649.31;4972627;28;20041;-77
2021/11/15 11:18:12;;;;;;;18.35;13.65;;;;;;;10.85;51.53;95669.13;4973015;28;20046;-77
2021/11/15 11:25:48;;;;;;;31.40;14.95;;;;;;;10.78;52.02;95650.97;4972173;28;20049;-77
2021/11/15 11:28:36;;;;;;;19.95;14.13;;;;;;;10.64;51.73;95650.25;4980476;28;20042;-77